首页
METAR-TAF:

METAR-TAF

机场 :

Jackson Municipal Airport

杰克逊, 明尼蘇達州, 美国

纬度: 43-39N, 经度: 094-59W, 海拔: 441米

当前天气观测

该预报发布于26分钟前的06:16 UTC
风速5节,风向西北
温度 3°C
湿度 93%
气压 1006 hPa
能見度: 16.1公里
散云层高于11000英尺

METAR: KMJQ 190616Z AUTO 31005KT 10SM SCT110 03/02 A2970 RMK AO2

时间: 00:42 (06:42 UTC)


TAF: 丢失

超过4000个机场的气象观测和天气预报(METAR&TAF报告)。

可查询的气象台以黄色和红色小点在地图上表示。

将鼠标移到小点上方,可查看气象台名称。

然后点击查看天气观测和预报。

如需切换地图:点击带黑十字的绿色按钮放大地图;点击带横线的绿色按钮缩小地图;或者点击绿色箭头查看邻近地区的地图。


METAR-TAF: